Time;durP1;ratioP1;P1;durP2;ratioP2;P2;SDS_P1;SDS_P2;PMS_P1;PMS_P2;Temp;Humidity;BMP_temperature;BMP_pressure;BME280_temperature;BME280_humidity;BME280_pressure;Samples;Min_cycle;Max_cycle;Signal;HPM_P1;HPM_P2
2021/11/27 00:04:13;;;;;;;57.70;30.20;;;;;;;3.81;71.87;96596.58;212328;1322;139527;-58
2021/11/27 00:09:16;;;;;;;60.00;32.00;;;;;;;3.66;71.82;96599.27;212976;1322;139796;-58
2021/11/27 00:14:20;;;;;;;48.50;25.90;;;;;;;3.52;72.09;96610.66;212217;1327;140297;-58
2021/11/27 00:19:23;;;;;;;55.60;31.30;;;;;;;3.43;72.29;96616.58;212676;1325;139928;-56
2021/11/27 00:24:26;;;;;;;51.60;27.40;;;;;;;3.40;72.41;96629.78;212183;1325;140365;-56
2021/11/27 00:29:29;;;;;;;45.70;24.10;;;;;;;3.34;72.44;96634.91;212448;1325;139869;-59
2021/11/27 00:34:32;;;;;;;50.00;26.00;;;;;;;3.30;72.36;96645.03;212456;1328;139933;-59
2021/11/27 00:39:39;;;;;;;43.30;24.90;;;;;;;3.23;72.36;96654.10;212402;1322;140003;-60
2021/11/27 00:44:43;;;;;;;40.90;22.50;;;;;;;3.17;72.45;96659.64;212055;1330;139899;-59
2021/11/27 00:49:50;;;;;;;34.30;19.30;;;;;;;3.12;72.40;96659.11;212110;1323;139162;-56
2021/11/27 00:54:54;;;;;;;33.80;19.10;;;;;;;3.09;72.73;96664.90;212374;1326;139810;-57
2021/11/27 00:59:57;;;;;;;40.40;21.10;;;;;;;3.09;72.77;96664.91;211766;1330;139820;-56
2021/11/27 01:05:02;;;;;;;36.30;19.60;;;;;;;3.06;72.85;96674.36;212623;1325;139301;-60
2021/11/27 01:10:10;;;;;;;40.40;21.60;;;;;;;3.08;72.66;96680.06;212278;1324;140486;-59
2021/11/27 01:15:17;;;;;;;37.90;20.20;;;;;;;3.06;72.65;96677.00;212894;1322;139726;-58
2021/11/27 01:20:23;;;;;;;37.10;19.70;;;;;;;3.04;72.59;96678.71;212574;1326;139447;-57
2021/11/27 01:25:28;;;;;;;33.50;18.50;;;;;;;3.03;72.53;96676.70;212609;1322;139154;-57
2021/11/27 01:30:31;;;;;;;34.60;17.20;;;;;;;3.03;72.60;96676.85;212340;1323;139596;-54
2021/11/27 01:35:34;;;;;;;36.30;18.20;;;;;;;3.01;72.51;96682.95;212553;1323;139295;-59
2021/11/27 01:40:39;;;;;;;30.90;17.40;;;;;;;2.99;72.61;96684.35;212263;1323;140206;-57
2021/11/27 01:45:43;;;;;;;31.70;16.10;;;;;;;2.95;72.52;96677.63;212056;1322;139510;-61
2021/11/27 01:50:59;;;;;;;25.90;14.50;;;;;;;2.95;72.49;96670.61;212330;1330;140344;-61
2021/11/27 01:56:08;;;;;;;28.70;15.40;;;;;;;2.91;72.61;96677.68;212760;1323;139697;-59
2021/11/27 02:01:15;;;;;;;26.30;13.90;;;;;;;2.90;72.47;96683.02;213220;1322;139916;-59
2021/11/27 02:06:24;;;;;;;26.00;14.60;;;;;;;2.85;72.32;96689.86;212041;1327;139234;-58
2021/11/27 02:11:31;;;;;;;26.80;13.70;;;;;;;2.87;72.53;96692.37;212526;1325;140192;-60
2021/11/27 02:16:36;;;;;;;24.50;14.10;;;;;;;2.89;72.56;96692.06;212107;1325;139488;-58
2021/11/27 02:21:43;;;;;;;23.70;14.50;;;;;;;2.89;72.52;96697.98;213150;1322;139526;-57
2021/11/27 02:26:49;;;;;;;26.60;15.00;;;;;;;2.87;72.63;96690.74;212049;1328;140201;-53
2021/11/27 02:31:53;;;;;;;;;;;;;;;2.93;72.79;96682.45;212192;1322;139772;-60
2021/11/27 02:37:00;;;;;;;21.10;12.50;;;;;;;3.00;72.62;96689.19;211993;1332;128139;-57
2021/11/27 02:42:05;;;;;;;24.70;13.10;;;;;;;3.02;72.44;96696.20;212801;1328;140175;-61
2021/11/27 02:47:09;;;;;;;23.50;14.20;;;;;;;3.04;72.53;96701.16;212444;1327;139859;-55
2021/11/27 02:52:12;;;;;;;23.10;14.60;;;;;;;3.06;72.58;96695.94;211865;1324;138867;-61
2021/11/27 02:57:15;;;;;;;22.50;12.60;;;;;;;3.06;72.44;96688.02;212444;1325;139820;-58
2021/11/27 03:02:19;;;;;;;20.20;11.90;;;;;;;3.10;72.25;96693.60;212692;1325;140880;-57
2021/11/27 03:07:23;;;;;;;17.60;11.50;;;;;;;3.14;72.42;96703.14;212125;1325;140613;-58
2021/11/27 03:12:27;;;;;;;17.30;12.00;;;;;;;3.09;72.13;96724.45;212276;1328;157057;-57
2021/11/27 03:17:30;;;;;;;21.70;12.10;;;;;;;3.02;72.20;96735.58;213033;1321;138939;-57
2021/11/27 03:22:34;;;;;;;20.30;12.60;;;;;;;3.01;72.39;96753.52;212218;1327;140060;-57
2021/11/27 03:27:39;;;;;;;21.70;12.80;;;;;;;3.00;72.41;96759.23;211736;1331;140260;-57
2021/11/27 03:32:44;;;;;;;26.40;16.30;;;;;;;2.96;72.39;96764.23;212020;1329;140774;-57
2021/11/27 03:37:53;;;;;;;29.60;17.50;;;;;;;2.94;72.47;96778.08;212016;1329;139157;-55
2021/11/27 03:43:02;;;;;;;26.80;15.50;;;;;;;2.90;72.38;96786.58;213264;1325;141421;-58
2021/11/27 03:48:11;;;;;;;27.70;17.10;;;;;;;2.87;72.27;96790.80;213171;1322;139737;-54
2021/11/27 03:53:48;;;;;;;27.80;16.80;;;;;;;2.80;72.42;96796.81;212156;1330;140737;-60
2021/11/27 03:58:53;;;;;;;25.30;14.80;;;;;;;2.81;72.48;96806.05;212542;1329;139958;-56
2021/11/27 04:03:58;;;;;;;24.80;16.40;;;;;;;2.85;72.61;96821.73;211988;1329;140786;-59
2021/11/27 04:09:05;;;;;;;25.60;16.10;;;;;;;2.88;72.60;96829.57;212517;1325;139980;-58
2021/11/27 04:14:10;;;;;;;24.60;14.60;;;;;;;2.87;72.74;96838.08;212235;1322;139627;-60
2021/11/27 04:19:19;;;;;;;22.70;14.70;;;;;;;2.87;72.58;96847.20;212156;1324;140021;-59
2021/11/27 04:24:22;;;;;;;22.00;14.80;;;;;;;2.90;72.75;96857.48;212726;1329;139894;-59
2021/11/27 04:29:25;;;;;;;21.40;13.00;;;;;;;2.93;72.60;96860.77;211986;1329;140248;-59
2021/11/27 04:34:29;;;;;;;18.80;13.90;;;;;;;2.97;72.57;96859.59;212954;1323;139925;-58
2021/11/27 04:39:32;;;;;;;20.70;14.00;;;;;;;2.99;72.68;96860.66;212572;1327;140088;-57
2021/11/27 04:44:35;;;;;;;22.60;14.60;;;;;;;3.03;72.65;96860.45;212173;1323;140288;-59
2021/11/27 04:49:39;;;;;;;20.40;14.10;;;;;;;3.06;72.76;96861.12;212291;1324;139768;-57
2021/11/27 04:54:42;;;;;;;20.90;13.20;;;;;;;3.11;72.60;96862.70;212257;1325;139534;-61
2021/11/27 04:59:47;;;;;;;23.00;13.70;;;;;;;3.12;72.65;96859.84;212416;1325;141451;-58
2021/11/27 05:04:51;;;;;;;23.20;15.70;;;;;;;3.11;72.63;96869.05;213487;1326;140491;-59
2021/11/27 05:09:56;;;;;;;23.20;14.10;;;;;;;3.14;72.63;96873.58;212121;1330;139966;-59
2021/11/27 05:14:59;;;;;;;22.10;14.70;;;;;;;3.18;72.63;96876.61;212029;1326;139375;-60
2021/11/27 05:20:05;;;;;;;20.80;14.00;;;;;;;3.24;72.50;96876.70;212683;1329;139908;-62
2021/11/27 05:25:08;;;;;;;19.30;13.20;;;;;;;3.30;72.57;96880.50;212641;1328;140419;-60
2021/11/27 05:30:30;;;;;;;20.00;13.60;;;;;;;3.34;72.34;96890.65;212481;1328;139167;-60
2021/11/27 05:35:40;;;;;;;20.90;14.50;;;;;;;3.33;72.40;96896.27;212499;1326;140301;-57
2021/11/27 05:40:44;;;;;;;21.50;13.30;;;;;;;3.32;72.37;96901.38;212117;1325;139144;-57
2021/11/27 05:45:48;;;;;;;18.40;12.00;;;;;;;3.36;72.39;96896.78;212245;1329;141391;-57
2021/11/27 05:50:54;;;;;;;18.20;12.00;;;;;;;3.41;72.40;96898.01;212137;1326;140461;-57
2021/11/27 05:55:58;;;;;;;16.90;11.80;;;;;;;3.43;72.15;96899.06;212970;1323;139797;-58
2021/11/27 06:01:05;;;;;;;20.00;13.30;;;;;;;3.44;72.20;96896.05;212523;1328;139771;-58
2021/11/27 06:06:10;;;;;;;18.10;12.30;;;;;;;3.46;72.11;96907.29;213111;1324;139361;-58
2021/11/27 06:11:14;;;;;;;17.50;11.90;;;;;;;3.48;72.08;96916.65;212335;1328;139543;-60
2021/11/27 06:16:17;;;;;;;17.40;12.10;;;;;;;3.51;71.90;96928.37;212116;1324;140279;-60
2021/11/27 06:21:21;;;;;;;17.40;12.20;;;;;;;3.58;71.92;96932.78;212651;1329;141324;-58
2021/11/27 06:26:24;;;;;;;17.20;12.10;;;;;;;3.64;71.97;96944.11;212139;1325;139827;-57
2021/11/27 06:31:27;;;;;;;18.10;12.40;;;;;;;3.68;71.77;96944.42;212863;1327;139443;-58
2021/11/27 06:36:31;;;;;;;21.10;13.70;;;;;;;3.71;71.93;96941.70;212772;1329;139791;-59
2021/11/27 06:41:34;;;;;;;20.50;13.50;;;;;;;3.73;71.73;96942.46;212619;1323;139105;-60
2021/11/27 06:46:55;;;;;;;20.50;13.70;;;;;;;3.72;71.40;96951.63;212476;1325;139609;-59
2021/11/27 06:51:58;;;;;;;17.50;12.30;;;;;;;3.76;71.70;96951.22;211963;1336;140443;-59
2021/11/27 06:57:02;;;;;;;18.20;12.80;;;;;;;3.84;71.61;96953.27;212823;1323;141921;-58
2021/11/27 07:02:06;;;;;;;20.10;13.80;;;;;;;3.92;71.62;96962.23;212340;1328;139820;-57
2021/11/27 07:07:28;;;;;;;20.10;13.60;;;;;;;3.96;71.58;96961.80;212578;1328;139567;-57
2021/11/27 07:12:49;;;;;;;21.10;14.00;;;;;;;4.00;71.63;96971.65;212003;1332;140383;-61
2021/11/27 07:17:54;;;;;;;19.40;13.30;;;;;;;4.03;71.37;96969.86;211988;1331;139926;-60
2021/11/27 07:22:57;;;;;;;19.60;13.30;;;;;;;4.06;71.23;96975.86;212411;1329;140024;-57
2021/11/27 07:28:00;;;;;;;18.50;13.70;;;;;;;4.09;71.17;96986.52;212330;1324;139640;-60
2021/11/27 07:33:04;;;;;;;18.50;12.90;;;;;;;4.15;71.07;96993.23;211912;1329;140568;-58
2021/11/27 07:38:08;;;;;;;18.20;12.40;;;;;;;4.28;71.47;96998.01;212510;1323;142577;-60
2021/11/27 07:43:11;;;;;;;81.00;52.80;;;;;;;4.41;71.45;97003.17;212985;1328;139164;-57
2021/11/27 07:48:18;;;;;;;23.00;14.40;;;;;;;4.65;71.81;96998.76;212430;1328;140285;-61
2021/11/27 07:53:41;;;;;;;17.40;12.60;;;;;;;4.77;71.08;96993.11;212195;1331;139470;-58
2021/11/27 07:58:45;;;;;;;19.40;13.40;;;;;;;4.76;70.56;96990.56;212668;1328;139499;-59
2021/11/27 08:03:48;;;;;;;51.90;34.50;;;;;;;4.74;70.69;96986.49;213505;1323;142169;-60
2021/11/27 08:08:51;;;;;;;23.80;14.90;;;;;;;4.82;70.92;96991.86;212568;1319;140725;-59
2021/11/27 08:13:55;;;;;;;20.10;13.50;;;;;;;4.90;70.55;96992.19;211787;1331;140893;-58
2021/11/27 08:18:58;;;;;;;23.00;14.90;;;;;;;4.95;70.33;97000.06;212343;1329;140490;-58
2021/11/27 08:24:01;;;;;;;22.70;13.40;;;;;;;5.01;70.29;97004.25;212245;1324;139340;-59
2021/11/27 08:29:07;;;;;;;21.60;14.60;;;;;;;5.05;70.02;97005.73;212403;1326;139226;-58
2021/11/27 08:34:10;;;;;;;24.00;13.70;;;;;;;5.04;69.83;97006.84;212175;1328;139089;-60
2021/11/27 08:39:13;;;;;;;46.50;30.60;;;;;;;5.03;69.96;97018.52;211910;1333;142097;-58
2021/11/27 08:44:16;;;;;;;22.10;14.80;;;;;;;5.06;70.05;97039.19;212661;1322;139418;-62
2021/11/27 08:49:19;;;;;;;21.60;13.00;;;;;;;5.00;69.64;97055.60;212679;1325;140542;-59
2021/11/27 08:54:23;;;;;;;21.30;14.70;;;;;;;4.90;69.66;97058.59;212748;1328;138998;-59
2021/11/27 08:59:29;;;;;;;24.50;15.50;;;;;;;4.83;69.77;97062.45;211974;1329;138991;-59
2021/11/27 09:04:33;;;;;;;25.90;14.70;;;;;;;4.83;69.62;97066.62;211852;1331;140253;-61
2021/11/27 09:09:37;;;;;;;86.50;55.10;;;;;;;4.91;69.95;97057.83;212129;1325;139772;-65
2021/11/27 09:14:40;;;;;;;25.40;15.80;;;;;;;5.07;70.14;97066.02;212409;1322;139662;-59
2021/11/27 09:19:44;;;;;;;23.50;14.20;;;;;;;5.05;70.01;97066.30;212095;1326;140218;-58
2021/11/27 09:24:48;;;;;;;20.40;14.00;;;;;;;5.03;69.77;97069.30;212099;1326;139614;-58
2021/11/27 09:29:51;;;;;;;24.20;15.30;;;;;;;5.04;69.58;97069.23;211764;1331;140162;-64
2021/11/27 09:34:54;;;;;;;22.10;15.30;;;;;;;5.13;69.69;97064.52;211917;1323;139207;-59
2021/11/27 09:39:57;;;;;;;21.60;14.30;;;;;;;5.25;69.95;97058.88;211904;1324;139748;-61
2021/11/27 09:45:03;;;;;;;21.90;15.20;;;;;;;5.33;69.44;97054.41;212719;1326;140183;-58
2021/11/27 09:50:08;;;;;;;23.10;16.30;;;;;;;5.40;69.49;97059.34;212072;1325;140417;-59
2021/11/27 09:55:12;;;;;;;33.10;23.70;;;;;;;5.50;70.22;97066.02;212260;1325;139496;-58
2021/11/27 10:00:18;;;;;;;25.80;16.20;;;;;;;6.13;71.49;97069.63;212562;1322;139848;-58
2021/11/27 10:05:23;;;;;;;23.20;15.30;;;;;;;6.23;69.77;97061.16;212685;1322;139070;-58
2021/11/27 10:10:27;;;;;;;24.40;17.10;;;;;;;6.14;69.03;97068.16;211780;1330;139108;-60
2021/11/27 10:15:30;;;;;;;23.10;14.80;;;;;;;6.04;68.87;97067.55;212346;1325;139218;-57
2021/11/27 10:20:37;;;;;;;22.60;15.80;;;;;;;5.88;68.50;97072.74;212333;1326;139221;-60
2021/11/27 10:25:42;;;;;;;23.70;15.20;;;;;;;5.79;68.68;97075.67;212386;1324;139255;-56
2021/11/27 10:30:47;;;;;;;20.70;13.80;;;;;;;5.80;68.84;97082.31;212335;1330;139168;-57
2021/11/27 10:35:54;;;;;;;19.10;12.90;;;;;;;5.82;68.63;97085.13;211609;1332;140495;-59
2021/11/27 10:40:58;;;;;;;22.60;14.90;;;;;;;5.79;68.22;97088.91;212701;1322;140252;-57
2021/11/27 10:46:02;;;;;;;23.30;15.60;;;;;;;5.86;68.50;97089.39;212485;1326;139984;-59
2021/11/27 10:51:05;;;;;;;314.60;189.30;;;;;;;5.99;68.54;97082.82;212339;1322;139751;-61
2021/11/27 10:56:11;;;;;;;24.70;15.20;;;;;;;6.46;70.20;97076.24;212314;1327;139301;-58
2021/11/27 11:01:15;;;;;;;20.10;13.40;;;;;;;6.99;69.11;97064.05;212688;1322;139219;-58
2021/11/27 11:06:26;;;;;;;18.70;12.60;;;;;;;6.98;68.12;97073.83;212435;1322;139724;-60
2021/11/27 11:11:34;;;;;;;17.50;11.80;;;;;;;6.84;67.03;97074.55;212186;1324;138719;-59
2021/11/27 11:16:54;;;;;;;17.80;11.90;;;;;;;6.69;66.88;97082.44;211877;1324;214981;-59
2021/11/27 11:22:20;;;;;;;17.10;12.10;;;;;;;6.61;66.98;97073.89;212141;1328;139628;-59
2021/11/27 11:27:35;;;;;;;19.10;11.30;;;;;;;6.64;67.03;97067.85;212188;1328;140014;-63
2021/11/27 11:32:38;;;;;;;168.40;100.50;;;;;;;6.62;66.54;97067.13;212482;1325;141141;-64
2021/11/27 11:37:43;;;;;;;30.10;15.80;;;;;;;6.69;66.48;97056.51;212196;1324;140977;-59
2021/11/27 11:42:47;;;;;;;15.40;11.00;;;;;;;6.74;65.93;97065.85;212649;1326;139715;-58
2021/11/27 11:47:50;;;;;;;14.80;10.30;;;;;;;6.70;65.99;97070.70;212211;1325;139875;-63
2021/11/27 11:53:26;;;;;;;14.30;9.50;;;;;;;6.65;65.60;97064.29;211765;1334;138931;-64
2021/11/27 11:58:37;;;;;;;17.80;10.10;;;;;;;6.58;65.32;97064.44;212402;1325;138916;-58
2021/11/27 12:03:43;;;;;;;18.30;11.20;;;;;;;6.53;65.22;97064.44;212106;1323;139420;-61
2021/11/27 12:08:48;;;;;;;125.70;72.60;;;;;;;6.52;65.47;97065.63;211849;1323;139311;-58
2021/11/27 12:13:58;;;;;;;22.60;14.50;;;;;;;6.62;65.60;97067.63;212532;1323;139745;-58
2021/11/27 12:19:12;;;;;;;29.30;18.60;;;;;;;6.64;65.43;97066.27;212753;1322;140326;-58
2021/11/27 12:24:30;;;;;;;24.80;13.30;;;;;;;6.71;65.40;97078.23;212676;1317;140536;-58
2021/11/27 12:30:01;;;;;;;23.90;12.20;;;;;;;6.74;65.20;97076.38;212815;1322;139641;-57
2021/11/27 12:35:26;;;;;;;18.20;11.80;;;;;;;6.72;64.89;97072.85;212655;1322;139801;-58
2021/11/27 12:40:37;;;;;;;13.10;9.20;;;;;;;6.69;64.73;97082.98;212488;1322;138810;-58
2021/11/27 12:45:44;;;;;;;9.50;5.90;;;;;;;6.65;63.99;97087.50;212202;1322;143549;-58
2021/11/27 12:51:18;;;;;;;12.30;6.10;;;;;;;6.59;63.46;97089.73;212480;1322;139550;-58
2021/11/27 12:56:22;;;;;;;16.10;10.70;;;;;;;6.59;63.18;97095.16;212465;1325;140309;-59
2021/11/27 13:01:32;;;;;;;11.70;6.50;;;;;;;6.74;63.62;97091.42;212509;1324;139405;-59
2021/11/27 13:06:40;;;;;;;10.10;6.20;;;;;;;6.87;63.05;97093.34;212365;1325;139259;-57
2021/11/27 13:11:51;;;;;;;7.90;5.30;;;;;;;6.87;62.69;97100.02;212730;1325;140204;-59
2021/11/27 13:17:05;;;;;;;9.20;5.50;;;;;;;6.85;62.25;97100.22;212461;1328;138859;-60
2021/11/27 13:22:18;;;;;;;9.40;5.40;;;;;;;6.82;62.10;97096.35;212047;1331;139275;-58
2021/11/27 13:27:24;;;;;;;55.80;31.10;;;;;;;6.82;61.71;97092.48;213365;1322;138895;-59
2021/11/27 13:32:35;;;;;;;13.70;6.40;;;;;;;6.92;61.92;97090.90;214486;1321;141910;-60
2021/11/27 13:37:48;;;;;;;7.40;4.50;;;;;;;6.95;61.60;97094.14;212549;1324;139325;-61
2021/11/27 13:43:00;;;;;;;5.90;4.40;;;;;;;6.99;61.15;97100.38;213629;1321;139980;-59
2021/11/27 13:48:07;;;;;;;233.90;140.60;;;;;;;7.01;61.30;97106.49;213532;1322;140095;-61
2021/11/27 13:53:10;;;;;;;30.90;17.60;;;;;;;7.20;61.42;97100.11;212562;1322;139533;-57
2021/11/27 13:58:17;;;;;;;9.60;5.60;;;;;;;7.28;60.98;97093.24;213176;1325;139713;-59
2021/11/27 14:03:20;;;;;;;7.00;4.70;;;;;;;7.24;60.52;97097.46;212468;1325;138830;-60
2021/11/27 14:08:25;;;;;;;7.80;4.50;;;;;;;7.17;60.01;97095.45;212694;1322;140453;-59
2021/11/27 14:13:30;;;;;;;7.60;5.00;;;;;;;7.09;59.92;97094.40;212162;1322;139720;-59
2021/11/27 14:18:33;;;;;;;18.50;11.70;;;;;;;7.08;60.12;97088.67;212218;1324;139178;-56
2021/11/27 14:23:44;;;;;;;23.40;14.00;;;;;;;7.14;61.08;97095.45;211999;1321;139463;-57
2021/11/27 14:28:55;;;;;;;20.70;12.80;;;;;;;7.18;61.37;97089.48;211853;1329;139169;-59
2021/11/27 14:34:06;;;;;;;35.10;22.90;;;;;;;7.21;61.44;97089.27;212436;1323;139215;-57
2021/11/27 14:39:09;;;;;;;21.40;12.80;;;;;;;7.24;61.51;97086.17;213886;1319;139148;-59
2021/11/27 14:44:15;;;;;;;20.60;11.40;;;;;;;7.19;61.38;97094.70;213403;1321;139221;-59
2021/11/27 14:49:36;;;;;;;15.90;10.40;;;;;;;7.11;61.38;97094.27;213567;1321;139535;-59
2021/11/27 14:54:41;;;;;;;19.30;10.50;;;;;;;7.03;61.09;97089.95;214393;1322;139505;-57
2021/11/27 15:00:03;;;;;;;21.00;12.20;;;;;;;7.03;61.65;97097.38;212567;1322;139603;-56
2021/11/27 15:05:08;;;;;;;21.60;11.00;;;;;;;7.08;61.22;97103.30;214604;1322;139620;-55
2021/11/27 15:10:15;;;;;;;17.70;10.90;;;;;;;7.06;61.15;97106.52;214065;1321;139521;-56
2021/11/27 15:15:18;;;;;;;19.30;11.80;;;;;;;6.99;60.92;97112.20;212342;1322;139242;-57
2021/11/27 15:20:21;;;;;;;17.70;11.70;;;;;;;6.93;61.15;97108.20;212673;1322;139252;-59
2021/11/27 15:25:25;;;;;;;20.00;12.10;;;;;;;6.87;61.39;97106.73;212940;1322;139596;-58
2021/11/27 15:30:29;;;;;;;21.20;12.40;;;;;;;6.82;61.52;97117.05;212672;1326;139321;-58
2021/11/27 15:35:32;;;;;;;21.40;12.80;;;;;;;6.79;61.71;97115.33;212857;1326;139199;-58
2021/11/27 15:40:36;;;;;;;22.80;12.90;;;;;;;6.77;61.69;97115.15;212786;1322;139177;-58
2021/11/27 15:45:39;;;;;;;27.60;14.50;;;;;;;6.77;62.14;97108.27;211928;1329;141032;-58
2021/11/27 15:50:43;;;;;;;23.60;14.80;;;;;;;6.84;62.28;97102.55;212313;1329;140457;-54
2021/11/27 15:55:46;;;;;;;26.10;14.30;;;;;;;6.83;62.18;97098.08;211918;1331;139167;-57
2021/11/27 16:00:49;;;;;;;25.90;15.00;;;;;;;6.78;62.36;97093.48;212645;1321;139132;-58
2021/11/27 16:05:52;;;;;;;26.10;15.30;;;;;;;6.72;62.35;97096.86;212474;1323;139902;-59
2021/11/27 16:10:57;;;;;;;29.90;16.50;;;;;;;6.67;62.49;97087.33;211827;1331;139578;-57
2021/11/27 16:16:01;;;;;;;28.70;17.00;;;;;;;6.63;62.83;97083.42;212240;1325;140444;-57
2021/11/27 16:21:06;;;;;;;29.20;16.00;;;;;;;6.59;63.12;97091.67;212363;1322;141600;-57
2021/11/27 16:26:10;;;;;;;28.80;17.50;;;;;;;6.53;63.21;97099.52;212666;1326;140446;-58
2021/11/27 16:31:16;;;;;;;30.50;18.20;;;;;;;6.49;63.12;97106.93;212625;1326;139735;-58
2021/11/27 16:36:19;;;;;;;25.90;17.80;;;;;;;6.46;63.28;97113.30;212449;1322;139758;-58
2021/11/27 16:41:23;;;;;;;31.30;17.90;;;;;;;6.46;63.69;97124.71;212831;1325;139699;-58
2021/11/27 16:46:26;;;;;;;29.90;17.30;;;;;;;6.50;63.39;97124.79;212643;1322;141284;-59
2021/11/27 16:51:29;;;;;;;30.60;17.80;;;;;;;6.60;63.67;97119.98;212661;1325;139867;-56
2021/11/27 16:56:32;;;;;;;33.00;18.90;;;;;;;6.66;63.74;97114.58;211775;1331;140686;-55
2021/11/27 17:01:35;;;;;;;30.60;18.60;;;;;;;6.68;63.62;97116.14;212420;1325;140627;-60
2021/11/27 17:06:39;;;;;;;33.10;19.50;;;;;;;6.66;63.77;97120.55;212277;1325;138942;-60
2021/11/27 17:11:43;;;;;;;36.00;20.30;;;;;;;6.63;63.79;97125.00;212290;1328;139490;-59
2021/11/27 17:16:46;;;;;;;33.90;22.00;;;;;;;6.62;63.81;97136.15;212213;1326;139721;-58
2021/11/27 17:21:50;;;;;;;36.30;21.00;;;;;;;6.62;63.85;97141.48;212340;1327;139137;-57
2021/11/27 17:26:53;;;;;;;38.70;21.90;;;;;;;6.61;63.85;97133.77;211936;1329;139694;-59
2021/11/27 17:31:57;;;;;;;42.00;23.90;;;;;;;6.58;63.80;97146.85;212163;1325;139705;-58
2021/11/27 17:37:00;;;;;;;40.70;22.10;;;;;;;6.57;63.92;97145.88;211830;1324;139078;-60
2021/11/27 17:42:07;;;;;;;37.60;21.20;;;;;;;6.54;64.06;97140.14;212203;1328;141023;-60
2021/11/27 17:47:10;;;;;;;35.20;21.00;;;;;;;6.52;63.88;97148.58;212556;1322;139983;-60
2021/11/27 17:52:14;;;;;;;38.10;21.50;;;;;;;6.50;64.12;97145.42;212089;1325;140281;-57
2021/11/27 17:57:17;;;;;;;38.60;21.80;;;;;;;6.48;64.18;97159.80;212498;1323;139798;-60
2021/11/27 18:02:20;;;;;;;39.00;22.70;;;;;;;6.43;64.46;97173.39;212148;1325;140343;-56
2021/11/27 18:07:24;;;;;;;37.20;22.50;;;;;;;6.38;64.56;97181.45;212913;1322;139712;-59
2021/11/27 18:12:27;;;;;;;36.60;22.00;;;;;;;6.39;64.68;97194.29;211754;1331;140062;-58
2021/11/27 18:17:30;;;;;;;42.50;25.10;;;;;;;6.43;65.16;97201.45;212625;1322;140684;-57
2021/11/27 18:22:33;;;;;;;40.50;23.30;;;;;;;6.41;65.04;97199.42;211885;1330;140186;-58
2021/11/27 18:27:41;;;;;;;40.00;24.70;;;;;;;6.38;65.36;97205.63;212102;1323;139098;-59
2021/11/27 18:32:45;;;;;;;40.70;24.40;;;;;;;6.34;65.50;97205.73;212201;1330;139217;-58
2021/11/27 18:37:48;;;;;;;49.30;27.90;;;;;;;6.28;65.65;97210.11;212142;1325;139522;-57
2021/11/27 18:42:51;;;;;;;42.60;26.10;;;;;;;6.23;65.85;97205.86;212697;1323;139732;-59
2021/11/27 18:47:54;;;;;;;45.40;27.30;;;;;;;6.19;65.76;97213.40;212350;1329;138894;-57
2021/11/27 18:52:57;;;;;;;45.20;27.10;;;;;;;6.15;66.05;97229.14;211943;1332;139635;-58
2021/11/27 18:58:00;;;;;;;44.50;26.10;;;;;;;6.13;66.11;97230.17;212463;1324;140004;-58
2021/11/27 19:03:03;;;;;;;43.40;26.00;;;;;;;6.15;66.18;97236.95;212065;1324;139343;-58
2021/11/27 19:08:08;;;;;;;44.50;25.20;;;;;;;6.19;66.12;97240.48;212583;1320;140231;-59
2021/11/27 19:13:11;;;;;;;44.10;27.40;;;;;;;6.23;66.26;97237.73;212377;1325;163794;-59
2021/11/27 19:18:14;;;;;;;44.80;27.90;;;;;;;6.27;66.40;97237.59;212465;1325;139310;-59
2021/11/27 19:23:17;;;;;;;46.80;27.40;;;;;;;6.27;66.17;97233.19;212272;1326;140931;-58
2021/11/27 19:28:20;;;;;;;47.70;29.60;;;;;;;6.22;66.41;97235.39;212141;1324;139818;-59
2021/11/27 19:33:28;;;;;;;49.60;29.10;;;;;;;6.17;66.40;97243.45;212035;1325;139415;-58
2021/11/27 19:38:31;;;;;;;48.30;29.20;;;;;;;6.12;66.38;97251.97;212577;1325;139867;-58
2021/11/27 19:43:35;;;;;;;54.50;30.50;;;;;;;6.08;66.63;97248.69;212671;1325;139638;-58
2021/11/27 19:48:40;;;;;;;48.70;29.50;;;;;;;6.06;66.83;97250.95;212909;1326;139418;-54
2021/11/27 19:53:48;;;;;;;54.10;30.70;;;;;;;6.02;66.78;97253.56;212467;1329;139206;-58
2021/11/27 19:58:52;;;;;;;51.50;30.40;;;;;;;6.02;66.62;97253.95;212608;1326;139839;-58
2021/11/27 20:03:55;;;;;;;52.10;30.90;;;;;;;6.05;67.11;97248.27;211791;1323;140702;-58
2021/11/27 20:08:58;;;;;;;53.90;31.70;;;;;;;6.07;67.17;97244.76;212345;1328;139855;-58
2021/11/27 20:14:02;;;;;;;53.80;30.60;;;;;;;6.08;67.22;97257.36;212629;1322;140188;-59
2021/11/27 20:19:06;;;;;;;53.90;31.40;;;;;;;6.07;67.28;97260.38;213334;1322;139536;-59
2021/11/27 20:24:09;;;;;;;54.20;31.80;;;;;;;6.05;67.03;97258.13;211915;1331;229484;-55
2021/11/27 20:29:13;;;;;;;53.10;32.30;;;;;;;6.01;67.33;97268.41;212011;1331;140840;-57
2021/11/27 20:34:16;;;;;;;53.90;31.60;;;;;;;5.97;67.46;97271.50;211991;1328;139543;-58
2021/11/27 20:39:20;;;;;;;56.70;32.30;;;;;;;5.93;67.32;97270.21;212403;1329;140810;-58
2021/11/27 20:44:23;;;;;;;57.90;32.80;;;;;;;5.89;67.46;97279.75;212402;1328;141980;-55
2021/11/27 20:49:27;;;;;;;57.90;32.40;;;;;;;5.92;67.62;97279.95;211976;1327;139651;-53
2021/11/27 20:54:31;;;;;;;59.20;33.60;;;;;;;5.98;67.75;97282.86;212122;1329;140027;-57
2021/11/27 20:59:35;;;;;;;61.60;36.10;;;;;;;6.04;67.76;97285.80;212223;1330;139578;-57
2021/11/27 21:04:38;;;;;;;61.10;36.00;;;;;;;6.05;67.57;97282.40;212604;1325;141706;-59
2021/11/27 21:09:41;;;;;;;57.80;36.10;;;;;;;6.04;67.71;97287.55;212569;1325;141509;-59
2021/11/27 21:14:45;;;;;;;65.50;37.30;;;;;;;6.02;67.67;97283.10;212393;1322;139403;-52
2021/11/27 21:19:48;;;;;;;65.50;36.10;;;;;;;6.00;67.60;97273.55;212324;1328;141891;-57
2021/11/27 21:24:52;;;;;;;63.70;36.80;;;;;;;5.99;67.80;97269.64;213015;1322;139184;-60
2021/11/27 21:29:55;;;;;;;64.20;37.70;;;;;;;5.97;68.04;97256.95;211969;1329;141197;-58
2021/11/27 21:34:58;;;;;;;62.90;34.60;;;;;;;5.94;67.83;97253.77;212337;1326;139139;-59
2021/11/27 21:40:03;;;;;;;86.50;48.20;;;;;;;5.98;68.26;97254.20;212436;1323;140317;-57
2021/11/27 21:45:07;;;;;;;58.50;35.70;;;;;;;6.15;68.40;97252.98;212753;1322;141068;-59
2021/11/27 21:50:10;;;;;;;63.20;36.20;;;;;;;6.25;68.27;97253.61;212364;1328;139431;-62
2021/11/27 21:55:13;;;;;;;64.10;36.40;;;;;;;6.21;67.74;97253.40;212793;1322;139277;-58
2021/11/27 22:00:17;;;;;;;71.60;38.40;;;;;;;6.15;67.87;97257.70;212376;1325;140751;-59
2021/11/27 22:05:26;;;;;;;77.30;39.90;;;;;;;6.10;67.69;97256.49;212696;1323;139659;-57
2021/11/27 22:10:29;;;;;;;87.80;45.70;;;;;;;6.02;67.70;97253.77;212431;1328;139759;-58
2021/11/27 22:15:34;;;;;;;86.70;46.30;;;;;;;5.96;67.97;97250.65;212141;1328;139224;-54
2021/11/27 22:20:45;;;;;;;80.10;43.20;;;;;;;5.91;68.07;97243.92;212400;1323;139658;-59
2021/11/27 22:25:48;;;;;;;81.60;43.50;;;;;;;5.83;68.02;97246.80;212405;1325;141068;-60
2021/11/27 22:30:53;;;;;;;75.90;42.60;;;;;;;5.79;68.21;97248.33;212374;1328;141795;-60
2021/11/27 22:35:56;;;;;;;77.10;43.60;;;;;;;5.79;68.07;97245.13;211878;1330;140213;-59
2021/11/27 22:41:00;;;;;;;71.60;43.30;;;;;;;5.80;68.15;97234.86;212221;1323;140951;-57
2021/11/27 22:46:04;;;;;;;75.00;42.30;;;;;;;5.82;68.57;97238.08;211913;1324;139719;-57
2021/11/27 22:51:07;;;;;;;74.40;42.20;;;;;;;5.83;68.50;97241.52;212456;1325;139813;-57
2021/11/27 22:56:11;;;;;;;68.20;40.20;;;;;;;5.78;68.05;97243.79;212978;1326;139417;-60
2021/11/27 23:01:18;;;;;;;71.10;40.40;;;;;;;5.75;68.27;97239.98;213250;1322;139536;-61
2021/11/27 23:06:21;;;;;;;70.00;40.00;;;;;;;5.74;68.58;97241.31;212793;1322;139126;-64
2021/11/27 23:11:29;;;;;;;73.80;41.80;;;;;;;5.67;68.20;97239.86;212241;1331;139084;-61